Date,TemperatureHighF,TemperatureAvgF,TemperatureLowF,DewpointHighF,DewpointAvgF,DewpointLowF,HumidityHigh,HumidityAvg,HumidityLow,PressureMaxIn,PressureMinIn,WindSpeedMaxMPH,WindSpeedAvgMPH,GustSpeedMaxMPH,PrecipitationSumIn
2013-9-1,83,70,61,75,67,60,99,92,74,29.81,29.69,1,0,2,0.18
2013-9-2,70,63,56,64,60,54,99,90,73,29.99,29.79,1,0,5,0.01
2013-9-3,74,62,52,61,56,51,96,83,56,30.08,29.99,0,0,1,0.00
2013-9-4,77,66,54,69,61,53,98,87,70,30.11,30.02,0,0,2,0.00
2013-9-5,70,64,54,64,55,50,94,75,53,30.27,30.12,1,0,6,0.00
2013-9-6,83,68,54,72,62,51,96,82,64,30.23,29.98,0,0,4,0.00
2013-9-7,79,70,64,72,68,63,97,93,74,29.98,29.87,1,0,2,0.45
2013-9-8,70,68,65,68,65,64,95,92,85,30.04,29.95,2,0,5,0.00
2013-9-9,86,76,66,78,72,65,98,89,75,29.97,29.77,1,0,2,0.00
2013-9-10,92,80,71,73,69,65,88,71,46,29.92,29.79,1,0,6,0.00
2013-9-11,78,72,66,69,68,64,94,86,72,29.95,29.90,0,0,0,0.00
2013-9-12,75,65,57,66,61,51,97,88,67,30.10,29.93,1,0,10,0.28
2013-9-13,65,55,47,51,47,44,89,76,49,30.20,30.11,1,0,4,0.00
2013-9-14,70,57,46,54,49,44,96,78,50,30.18,30.01,0,0,1,0.00
2013-9-15,58,55,52,57,54,49,98,94,79,30.21,29.99,1,0,3,0.45
2013-9-16,62,53,44,52,47,42,94,83,61,30.39,30.21,2,0,6,0.00
2013-9-17,66,57,46,57,52,44,97,86,69,30.35,30.11,1,0,4,0.00
2013-9-18,78,66,58,70,62,55,97,89,74,30.11,29.89,1,0,4,0.11
2013-9-19,80,71,66,74,69,65,99,94,82,29.90,29.72,1,0,5,0.50
2013-9-20,71,65,57,68,63,54,99,93,79,29.79,29.69,0,0,1,0.01
2013-9-21,58,54,49,55,51,47,96,88,73,29.95,29.78,1,0,4,0.00
2013-9-22,63,52,44,50,46,42,96,82,50,30.08,29.95,1,0,4,0.00
2013-9-23,63,54,45,53,50,44,100,86,67,30.14,30.05,1,0,4,0.00
2013-9-24,67,58,51,58,53,50,97,85,62,30.07,29.96,1,0,3,0.00
2013-9-25,68,58,50,59,53,49,98,85,62,29.99,29.94,1,0,4,0.00
2013-9-26,73,61,52,61,54,47,98,81,43,30.09,29.98,1,0,5,0.00
2013-9-27,78,64,55,59,56,53,97,77,50,30.16,30.05,1,0,3,0.00
2013-9-28,80,66,56,66,60,55,96,80,55,30.06,29.83,2,0,7,0.12
2013-9-29,70,57,49,55,50,44,98,81,41,30.05,29.92,0,0,3,0.03
2013-9-30,71,58,47,54,50,45,95,78,51,30.00,29.84,1,0,6,0.00